KRKS/RKS METAR and TAF weather

Enter ICAO airport designator
Station Type Date Time Source
KRKS METAR 2019/10/22 15:54 UTC NOAA

KRKS 221554Z AUTO 25026G38KT 10SM CLR 06/M01 A3026 RMK AO2 PK WND 26039/1523 SLP246 T00561006


Station Type Date Time Source
KRKS Decoded METAR 2019/10/22 15:54 UTC NOAA

ROCK SPRINGS-SWEETWATER CO, WY, United States (KRKS) 41-36N 109-03W
Oct 22, 2019 - 11:54 AM EDT / 2019.10.22 1554 UTC
Wind: from the WSW (250 degrees) at 30 MPH (26 KT) gusting to 44 MPH (38 KT):0
Visibility: 10 mile(s):0
Sky conditions: clear
Temperature: 42.1 F (5.6 C)
Dew Point: 30.9 F (-0.6 C)
Relative Humidity: 64%
Pressure (altimeter): 30.26 in. Hg (1024 hPa)
ob: KRKS 221554Z AUTO 25026G38KT 10SM CLR 06/M01 A3026 RMK AO2 PK WND 26039/1523 SLP246 T00561006
cycle: 16

Station Type Date Time Source
KRKS TAF 2019/10/22 12:48 UTC NOAA

TAF KRKS 221145Z 2212/2312 26025G35KT P6SM SCT018 OVC025
FM222000 26025G35KT P6SM BKN040
FM230100 26020G30KT P6SM SCT030

Example: see airport list